Time;durP1;ratioP1;P1;durP2;ratioP2;P2;SDS_P1;SDS_P2;PMS_P1;PMS_P2;Temp;Humidity;BMP_temperature;BMP_pressure;BME280_temperature;BME280_humidity;BME280_pressure;Samples;Min_cycle;Max_cycle;Signal;HPM_P1;HPM_P2
2023/12/22 00:00:04;;;;;;;;;;;;;;;19.94;45.62;98091.22;2100834;28;1620;-69
2023/12/22 00:01:05;;;;;;;;;;;;;;;19.94;45.61;98093.38;2099484;28;5835;-69
2023/12/22 00:02:07;;;;;;;;;;;;;;;19.94;45.47;98091.22;2098366;28;2053;-69
2023/12/22 00:03:08;;;;;;;;;;;;;;;19.96;45.51;98105.59;2099206;28;1899;-69
2023/12/22 00:04:10;;;;;;;;;;;;;;;19.96;45.36;98114.19;2100312;28;1997;-69
2023/12/22 00:05:11;;;;;;;;;;;;;;;19.94;45.48;98099.81;2100833;28;2001;-69
2023/12/22 00:06:13;;;;;;;;;;;;;;;19.95;45.48;98104.16;2099641;28;1566;-69
2023/12/22 00:07:14;;;;;;;;;;;;;;;19.96;45.28;98114.19;2100741;28;1657;-71
2023/12/22 00:08:16;;;;;;;;;;;;;;;19.95;45.53;98115.63;2101927;28;1914;-69
2023/12/22 00:09:17;;;;;;;;;;;;;;;19.96;45.50;98105.59;2098713;28;1928;-68
2023/12/22 00:10:19;;;;;;;;;;;;;;;19.97;45.39;98107.00;2099409;28;1626;-69
2023/12/22 00:11:20;;;;;;;;;;;;;;;19.93;45.44;98107.00;2098655;28;1662;-70
2023/12/22 00:12:21;;;;;;;;;;;;;;;19.96;45.34;98117.06;2102629;28;1682;-69
2023/12/22 00:13:23;;;;;;;;;;;;;;;19.99;45.35;98109.19;2098840;28;1915;-69
2023/12/22 00:14:24;;;;;;;;;;;;;;;20.00;45.39;98122.84;2100656;28;1913;-69
2023/12/22 00:15:26;;;;;;;;;;;;;;;20.01;45.38;98120.69;2093976;28;1840;-69
2023/12/22 00:16:27;;;;;;;;;;;;;;;20.01;45.41;98114.94;2099829;28;1889;-70
2023/12/22 00:17:28;;;;;;;;;;;;;;;20.00;45.47;98117.09;2099969;28;1971;-69
2023/12/22 00:18:30;;;;;;;;;;;;;;;20.01;45.56;98118.53;2100183;28;1547;-69
2023/12/22 00:19:32;;;;;;;;;;;;;;;20.02;45.30;98133.59;2101556;28;2025;-69
2023/12/22 00:20:34;;;;;;;;;;;;;;;20.01;45.31;98124.25;2101703;28;1550;-69
2023/12/22 00:21:35;;;;;;;;;;;;;;;20.02;45.41;98119.22;2097470;28;1578;-69
2023/12/22 00:22:36;;;;;;;;;;;;;;;20.01;45.40;98118.53;2100122;28;1951;-68
2023/12/22 00:23:38;;;;;;;;;;;;;;;20.00;45.54;98119.97;2095904;28;1955;-69
2023/12/22 00:24:40;;;;;;;;;;;;;;;20.01;45.47;98118.53;2096088;28;1958;-69
2023/12/22 00:25:41;;;;;;;;;;;;;;;19.99;45.56;98127.13;2098491;28;2002;-69
2023/12/22 00:26:43;;;;;;;;;;;;;;;19.99;45.52;98130.00;2092716;28;1593;-69
2023/12/22 00:27:44;;;;;;;;;;;;;;;19.99;45.58;98132.88;2097940;28;2127;-69
2023/12/22 00:28:46;;;;;;;;;;;;;;;19.98;45.57;98148.66;2099722;28;1902;-69
2023/12/22 00:29:47;;;;;;;;;;;;;;;19.97;45.66;98138.59;2098151;28;1974;-69
2023/12/22 00:30:49;;;;;;;;;;;;;;;19.96;45.66;98137.16;2100139;28;6005;-69
2023/12/22 00:31:50;;;;;;;;;;;;;;;19.95;45.65;98135.75;2104812;28;1594;-69
2023/12/22 00:32:51;;;;;;;;;;;;;;;19.95;45.68;98143.63;2097640;28;1623;-69
2023/12/22 00:33:53;;;;;;;;;;;;;;;19.95;45.45;98126.38;2097507;28;1930;-69
2023/12/22 00:34:56;;;;;;;;;;;;;;;19.95;45.67;98130.00;2101183;28;1962;-69
2023/12/22 00:35:58;;;;;;;;;;;;;;;19.93;45.68;98147.22;2102574;28;1928;-69
2023/12/22 00:37:00;;;;;;;;;;;;;;;19.94;45.53;98140.03;2102935;28;2070;-69
2023/12/22 00:38:01;;;;;;;;;;;;;;;19.94;45.60;98145.78;2096841;28;1971;-69
2023/12/22 00:39:03;;;;;;;;;;;;;;;19.93;45.71;98141.47;2097470;28;1516;-69
2023/12/22 00:40:06;;;;;;;;;;;;;;;19.94;45.56;98142.91;2098389;28;1885;-69
2023/12/22 00:41:08;;;;;;;;;;;;;;;19.93;45.49;98138.59;2101055;28;1438;-70
2023/12/22 00:42:09;;;;;;;;;;;;;;;19.93;45.58;98132.84;2099456;28;1880;-69
2023/12/22 00:43:11;;;;;;;;;;;;;;;19.93;45.70;98141.47;2099416;28;1536;-69
2023/12/22 00:44:12;;;;;;;;;;;;;;;19.91;45.61;98147.19;2100726;28;2004;-70
2023/12/22 00:45:14;;;;;;;;;;;;;;;19.91;45.53;98155.81;2101143;28;1962;-69
2023/12/22 00:46:15;;;;;;;;;;;;;;;19.91;45.42;98160.84;2098044;28;1562;-69
2023/12/22 00:47:17;;;;;;;;;;;;;;;19.91;45.55;98155.09;2098719;28;2002;-69
2023/12/22 00:48:18;;;;;;;;;;;;;;;19.90;45.59;98157.22;2100543;28;1871;-69
2023/12/22 00:49:21;;;;;;;;;;;;;;;19.89;45.66;98167.28;2102373;28;1988;-69
2023/12/22 00:50:23;;;;;;;;;;;;;;;19.90;45.63;98159.38;2099972;28;1993;-69
2023/12/22 00:51:24;;;;;;;;;;;;;;;19.89;45.57;98161.53;2102426;28;1762;-69
2023/12/22 00:52:26;;;;;;;;;;;;;;;19.89;45.55;98164.41;2102782;28;1854;-69
2023/12/22 00:53:27;;;;;;;;;;;;;;;19.89;45.78;98164.41;2100463;28;2275;-69
2023/12/22 00:54:31;;;;;;;;;;;;;;;19.89;45.66;98173.03;2100126;28;2010;-69
2023/12/22 00:55:32;;;;;;;;;;;;;;;19.87;45.59;98161.53;2100118;28;1918;-69
2023/12/22 00:56:34;;;;;;;;;;;;;;;19.87;45.61;98170.16;2101984;28;2013;-69
2023/12/22 00:57:35;;;;;;;;;;;;;;;19.88;45.56;98183.06;2100457;28;1510;-69
2023/12/22 00:58:37;;;;;;;;;;;;;;;19.87;45.61;98173.03;2100128;28;1842;-69
2023/12/22 00:59:42;;;;;;;;;;;;;;;19.87;45.66;98184.50;2103192;28;1780;-69
2023/12/22 01:00:43;;;;;;;;;;;;;;;19.87;45.40;98190.25;2102194;28;6191;-69
2023/12/22 01:01:45;;;;;;;;;;;;;;;19.87;45.41;98173.03;2100158;28;1926;-69
2023/12/22 01:02:46;;;;;;;;;;;;;;;19.86;45.53;98177.34;2101024;28;1863;-69
2023/12/22 01:03:47;;;;;;;;;;;;;;;19.84;45.57;98168.72;2098961;28;2077;-69
2023/12/22 01:04:49;;;;;;;;;;;;;;;19.86;45.45;98177.34;2098819;28;2053;-69
2023/12/22 01:05:50;;;;;;;;;;;;;;;19.85;45.37;98179.47;2103256;28;2106;-69
2023/12/22 01:06:53;;;;;;;;;;;;;;;19.85;45.65;98188.06;2101264;28;1530;-69
2023/12/22 01:07:54;;;;;;;;;;;;;;;19.85;45.58;98181.63;2100935;28;1787;-69
2023/12/22 01:08:56;;;;;;;;;;;;;;;19.84;45.45;98175.16;2101046;28;1910;-69
2023/12/22 01:10:01;;;;;;;;;;;;;;;19.84;45.48;98203.16;2103389;28;1511;-69
2023/12/22 01:11:02;;;;;;;;;;;;;;;19.83;45.51;98195.97;2102577;28;2052;-69
2023/12/22 01:12:04;;;;;;;;;;;;;;;19.83;45.63;98195.97;2100893;28;1594;-70
2023/12/22 01:13:06;;;;;;;;;;;;;;;19.82;45.32;98203.16;2097544;28;1790;-69
2023/12/22 01:14:07;;;;;;;;;;;;;;;19.82;45.10;98200.28;2103990;28;1772;-69
2023/12/22 01:15:09;;;;;;;;;;;;;;;19.82;45.20;98212.47;2099361;28;1653;-69
2023/12/22 01:16:10;;;;;;;;;;;;;;;19.83;45.32;98210.31;2100584;28;1800;-69
2023/12/22 01:17:11;;;;;;;;;;;;;;;19.82;45.12;98183.03;2100608;28;2047;-70
2023/12/22 01:18:13;;;;;;;;;;;;;;;19.81;45.05;98204.56;2101811;28;1538;-69
2023/12/22 01:19:14;;;;;;;;;;;;;;;19.81;45.29;98196.69;2101133;28;1904;-69
2023/12/22 01:20:16;;;;;;;;;;;;;;;19.81;44.96;98193.06;2102250;28;1648;-69
2023/12/22 01:21:17;;;;;;;;;;;;;;;19.81;44.94;98199.56;2098840;28;1706;-69
2023/12/22 01:22:19;;;;;;;;;;;;;;;19.82;44.84;98194.53;2103801;28;1622;-69
2023/12/22 01:23:20;;;;;;;;;;;;;;;19.82;44.65;98200.28;2100629;28;1926;-69
2023/12/22 01:24:22;;;;;;;;;;;;;;;19.82;44.76;98206.03;2100401;28;2017;-69
2023/12/22 01:25:23;;;;;;;;;;;;;;;19.82;44.81;98208.88;2102035;28;1570;-69
2023/12/22 01:26:24;;;;;;;;;;;;;;;19.81;44.56;98208.16;2098644;28;1907;-69
2023/12/22 01:27:27;;;;;;;;;;;;;;;19.81;44.74;98199.56;2103080;28;1676;-69
2023/12/22 01:28:28;;;;;;;;;;;;;;;19.81;44.77;98204.56;2102303;28;1808;-70
2023/12/22 01:29:30;;;;;;;;;;;;;;;19.81;44.90;98201.69;2099256;28;1992;-69
2023/12/22 01:30:31;;;;;;;;;;;;;;;19.79;45.32;98202.41;2108696;28;6191;-69
2023/12/22 01:31:32;;;;;;;;;;;;;;;19.79;45.35;98224.63;2101005;28;2103;-69
2023/12/22 01:32:36;;;;;;;;;;;;;;;19.79;45.34;98218.91;2102549;28;1939;-69
2023/12/22 01:33:38;;;;;;;;;;;;;;;19.79;45.27;98207.41;2100332;28;1893;-69
2023/12/22 01:34:40;;;;;;;;;;;;;;;19.79;45.26;98216.78;2099110;28;2009;-69
2023/12/22 01:35:41;;;;;;;;;;;;;;;19.80;45.34;98214.63;2099725;28;1765;-69
2023/12/22 01:36:43;;;;;;;;;;;;;;;19.80;45.11;98228.97;2102669;28;2042;-68
2023/12/22 01:37:45;;;;;;;;;;;;;;;19.80;45.12;98226.81;2099764;28;1998;-69
2023/12/22 01:38:47;;;;;;;;;;;;;;;19.81;45.13;98221.78;2100398;28;1448;-69
2023/12/22 01:39:48;;;;;;;;;;;;;;;19.81;45.08;98228.28;2098887;28;1529;-69
2023/12/22 01:40:50;;;;;;;;;;;;;;;19.82;45.28;98235.44;2099534;28;1869;-69
2023/12/22 01:41:51;;;;;;;;;;;;;;;19.82;45.33;98246.22;2099725;28;1589;-69
2023/12/22 01:42:52;;;;;;;;;;;;;;;19.82;45.26;98229.69;2099623;28;1867;-69
2023/12/22 01:43:54;;;;;;;;;;;;;;;19.84;45.24;98249.09;2097746;28;1948;-69
2023/12/22 01:44:55;;;;;;;;;;;;;;;19.82;45.14;98246.94;2099183;28;2065;-62
2023/12/22 01:45:57;;;;;;;;;;;;;;;19.83;45.30;98236.88;2099480;28;1992;-69
2023/12/22 01:46:58;;;;;;;;;;;;;;;19.84;45.22;98254.84;2098504;28;1994;-67
2023/12/22 01:48:00;;;;;;;;;;;;;;;19.83;45.14;98259.84;2101136;28;2000;-66
2023/12/22 01:49:01;;;;;;;;;;;;;;;19.84;45.15;98266.34;2099540;28;1723;-68
2023/12/22 01:50:03;;;;;;;;;;;;;;;19.84;45.38;98260.59;2102075;28;2029;-68
2023/12/22 01:51:04;;;;;;;;;;;;;;;19.85;45.35;98256.28;2098512;28;2087;-68
2023/12/22 01:52:06;;;;;;;;;;;;;;;19.85;45.33;98257.00;2099101;28;2101;-68
2023/12/22 01:53:07;;;;;;;;;;;;;;;19.86;45.24;98257.72;2097652;28;1959;-68
2023/12/22 01:54:09;;;;;;;;;;;;;;;19.85;45.35;98256.28;2099722;28;1949;-68
2023/12/22 01:55:11;;;;;;;;;;;;;;;19.85;45.35;98262.72;2099479;28;2131;-67
2023/12/22 01:56:12;;;;;;;;;;;;;;;19.84;45.27;98260.59;2097599;28;1707;-69
2023/12/22 01:57:14;;;;;;;;;;;;;;;19.85;45.33;98265.59;2101009;28;2247;-68
2023/12/22 01:58:15;;;;;;;;;;;;;;;19.85;45.29;98267.75;2100870;28;1970;-68
2023/12/22 01:59:16;;;;;;;;;;;;;;;19.85;45.34;98262.03;2101936;28;1813;-68
2023/12/22 02:00:18;;;;;;;;;;;;;;;19.84;45.51;98255.56;2101639;28;5993;-67
2023/12/22 02:01:20;;;;;;;;;;;;;;;19.84;45.36;98266.34;2100084;28;2005;-68
2023/12/22 02:02:21;;;;;;;;;;;;;;;19.85;45.53;98256.28;2100190;28;2063;-67
2023/12/22 02:03:23;;;;;;;;;;;;;;;19.84;45.34;98258.44;2098690;28;1967;-68
2023/12/22 02:04:24;;;;;;;;;;;;;;;19.84;45.47;98257.72;2094517;28;1908;-68
2023/12/22 02:05:26;;;;;;;;;;;;;;;19.83;45.41;98253.38;2092759;28;1980;-68
2023/12/22 02:06:27;;;;;;;;;;;;;;;19.82;45.42;98260.56;2099990;28;1924;-68
2023/12/22 02:07:29;;;;;;;;;;;;;;;19.82;45.41;98257.69;2100847;28;2006;-68
2023/12/22 02:08:31;;;;;;;;;;;;;;;19.82;45.42;98269.19;2100384;28;1771;-68
2023/12/22 02:09:32;;;;;;;;;;;;;;;19.82;45.58;98269.19;2099580;28;1914;-68
2023/12/22 02:10:34;;;;;;;;;;;;;;;19.82;45.39;98264.16;2101945;28;1541;-68
2023/12/22 02:11:37;;;;;;;;;;;;;;;19.82;45.50;98269.19;2100209;28;1682;-68
2023/12/22 02:12:38;;;;;;;;;;;;;;;19.81;45.41;98268.47;2100842;28;1840;-68
2023/12/22 02:13:40;;;;;;;;;;;;;;;19.81;45.58;98267.72;2101096;28;2047;-68
2023/12/22 02:14:41;;;;;;;;;;;;;;;19.81;45.42;98271.34;2098730;28;1518;-68
2023/12/22 02:15:43;;;;;;;;;;;;;;;19.82;45.57;98280.66;2099670;28;1961;-68
2023/12/22 02:16:50;;;;;;;;;;;;;;;19.81;45.40;98277.09;2098867;28;1619;-68
2023/12/22 02:17:53;;;;;;;;;;;;;;;19.81;45.49;98274.22;2100458;28;2051;-67
2023/12/22 02:18:55;;;;;;;;;;;;;;;19.80;45.51;98272.03;2100665;28;1912;-68
2023/12/22 02:19:56;;;;;;;;;;;;;;;19.79;45.45;98259.84;2103103;28;1624;-68
2023/12/22 02:20:58;;;;;;;;;;;;;;;19.79;45.61;98259.09;2101406;28;1591;-68
2023/12/22 02:22:06;;;;;;;;;;;;;;;19.79;45.56;98264.84;2099861;28;1863;-68
2023/12/22 02:23:10;;;;;;;;;;;;;;;19.78;45.58;98258.38;2101405;28;1726;-68
2023/12/22 02:24:11;;;;;;;;;;;;;;;19.78;45.59;98263.41;2100561;28;1720;-68
2023/12/22 02:25:13;;;;;;;;;;;;;;;19.78;45.58;98258.38;2103169;28;2365;-68
2023/12/22 02:26:17;;;;;;;;;;;;;;;19.77;45.59;98261.94;2099434;28;1923;-67
2023/12/22 02:27:31;;;;;;;;;;;;;;;19.77;45.55;98256.22;2099941;28;1814;-68
2023/12/22 02:28:32;;;;;;;;;;;;;;;19.77;45.59;98259.06;2093111;28;1620;-68
2023/12/22 02:29:37;;;;;;;;;;;;;;;19.76;45.68;98260.50;2092068;28;1961;-68
2023/12/22 02:30:41;;;;;;;;;;;;;;;19.76;45.50;98249.03;2092056;28;6252;-68
2023/12/22 02:31:44;;;;;;;;;;;;;;;19.75;45.56;98254.06;2096554;28;1732;-68
2023/12/22 02:32:47;;;;;;;;;;;;;;;19.76;45.47;98254.78;2098163;28;1974;-68
2023/12/22 02:33:48;;;;;;;;;;;;;;;19.75;45.46;98253.34;2098063;28;2312;-68
2023/12/22 02:34:51;;;;;;;;;;;;;;;19.75;45.48;98253.34;2100209;28;1995;-68
2023/12/22 02:35:52;;;;;;;;;;;;;;;19.75;45.47;98264.84;2094468;28;1928;-68
2023/12/22 02:36:54;;;;;;;;;;;;;;;19.74;45.54;98269.13;2100233;28;1580;-68
2023/12/22 02:37:58;;;;;;;;;;;;;;;19.75;45.41;98270.56;2100599;28;1665;-68
2023/12/22 02:39:00;;;;;;;;;;;;;;;19.73;45.44;98271.28;2101383;28;1918;-68
2023/12/22 02:40:01;;;;;;;;;;;;;;;19.73;45.42;98271.28;2091672;28;2030;-68
2023/12/22 02:41:03;;;;;;;;;;;;;;;19.73;45.46;98261.94;2094116;28;2299;-68
2023/12/22 02:42:05;;;;;;;;;;;;;;;19.72;45.26;98261.19;2102306;28;1845;-68
2023/12/22 02:43:06;;;;;;;;;;;;;;;19.71;45.28;98256.19;2098965;28;1792;-68
2023/12/22 02:44:08;;;;;;;;;;;;;;;19.73;44.93;98256.19;2097544;28;1713;-67
2023/12/22 02:45:16;;;;;;;;;;;;;;;19.73;44.99;98250.47;2091913;28;2063;-68
2023/12/22 02:46:17;;;;;;;;;;;;;;;19.72;44.85;98266.94;2065504;28;974092;-68
2023/12/22 02:47:18;;;;;;;;;;;;;;;19.73;44.95;98253.31;2100918;28;1872;-68
2023/12/22 02:48:20;;;;;;;;;;;;;;;19.71;45.05;98264.78;2101695;28;1900;-68
2023/12/22 02:49:21;;;;;;;;;;;;;;;19.72;44.84;98260.47;2098354;28;2028;-68
2023/12/22 02:50:23;;;;;;;;;;;;;;;19.71;44.77;98259.06;2098705;28;2038;-68
2023/12/22 02:51:24;;;;;;;;;;;;;;;19.72;44.69;98254.75;2098812;28;2055;-68
2023/12/22 02:52:26;;;;;;;;;;;;;;;19.72;44.81;98269.09;2102451;28;1615;-68
2023/12/22 02:53:27;;;;;;;;;;;;;;;19.72;44.67;98260.47;2097236;28;2072;-68
2023/12/22 02:54:30;;;;;;;;;;;;;;;19.72;44.59;98252.59;2102586;28;1636;-68
2023/12/22 02:55:31;;;;;;;;;;;;;;;19.72;44.69;98266.94;2099252;28;1860;-68
2023/12/22 02:56:33;;;;;;;;;;;;;;;19.72;44.68;98272.69;2099889;28;1674;-68
2023/12/22 02:57:34;;;;;;;;;;;;;;;19.70;44.79;98263.34;2100831;28;1603;-68
2023/12/22 02:58:36;;;;;;;;;;;;;;;19.71;44.67;98259.06;2101635;28;1464;-68
2023/12/22 02:59:37;;;;;;;;;;;;;;;19.70;44.85;98252.59;2101988;28;2066;-68
2023/12/22 03:00:40;;;;;;;;;;;;;;;19.71;45.08;98264.78;2097717;28;6130;-68
2023/12/22 03:01:41;;;;;;;;;;;;;;;19.67;44.94;98260.41;2101057;28;1974;-68
2023/12/22 03:02:42;;;;;;;;;;;;;;;19.67;44.98;98246.06;2101914;28;1577;-68
2023/12/22 03:03:44;;;;;;;;;;;;;;;19.67;44.69;98242.47;2099582;28;2010;-68
2023/12/22 03:04:48;;;;;;;;;;;;;;;19.68;44.70;98246.81;2101279;28;2014;-68
2023/12/22 03:05:50;;;;;;;;;;;;;;;19.67;45.09;98254.69;2098440;28;1946;-68
2023/12/22 03:06:51;;;;;;;;;;;;;;;19.67;44.98;98265.44;2100876;28;1888;-67
2023/12/22 03:07:52;;;;;;;;;;;;;;;19.66;45.25;98253.25;2100834;28;1607;-67
2023/12/22 03:08:54;;;;;;;;;;;;;;;19.65;44.84;98254.69;2098397;28;1915;-68
2023/12/22 03:09:55;;;;;;;;;;;;;;;19.66;44.90;98264.72;2100238;28;2005;-68
2023/12/22 03:10:57;;;;;;;;;;;;;;;19.65;44.80;98263.28;2100084;28;2013;-68
2023/12/22 03:12:01;;;;;;;;;;;;;;;19.66;45.02;98258.28;2101264;28;1784;-68
2023/12/22 03:13:03;;;;;;;;;;;;;;;19.66;44.75;98253.25;2099956;28;1906;-67
2023/12/22 03:14:04;;;;;;;;;;;;;;;19.66;44.80;98256.13;2101486;28;1630;-68
2023/12/22 03:15:06;;;;;;;;;;;;;;;19.66;44.93;98258.97;2098447;28;2104;-68
2023/12/22 03:16:10;;;;;;;;;;;;;;;19.65;45.29;98251.81;2102359;28;1697;-68
2023/12/22 03:17:12;;;;;;;;;;;;;;;19.67;45.14;98254.69;2103381;28;1820;-68
2023/12/22 03:18:13;;;;;;;;;;;;;;;19.66;45.18;98244.63;2098214;28;1862;-68
2023/12/22 03:19:14;;;;;;;;;;;;;;;19.67;45.11;98257.53;2099762;28;2210;-68
2023/12/22 03:20:16;;;;;;;;;;;;;;;19.67;45.06;98253.97;2098913;28;1962;-68
2023/12/22 03:21:19;;;;;;;;;;;;;;;19.66;45.21;98247.50;2100251;28;2159;-68
2023/12/22 03:22:20;;;;;;;;;;;;;;;19.69;45.28;98264.78;2100124;28;1970;-68
2023/12/22 03:23:22;;;;;;;;;;;;;;;19.68;45.19;98266.91;2101104;28;1756;-68
2023/12/22 03:24:24;;;;;;;;;;;;;;;19.67;45.20;98254.69;2097527;28;1941;-68
2023/12/22 03:25:28;;;;;;;;;;;;;;;19.69;45.20;98259.03;2097973;28;2122;-68
2023/12/22 03:26:29;;;;;;;;;;;;;;;19.68;45.19;98261.16;2098408;28;1939;-68
2023/12/22 03:27:31;;;;;;;;;;;;;;;19.70;45.09;98263.34;2096864;28;1880;-68
2023/12/22 03:28:33;;;;;;;;;;;;;;;19.71;45.17;98259.06;2100874;28;2017;-68
2023/12/22 03:29:35;;;;;;;;;;;;;;;19.70;45.14;98257.59;2099692;28;2213;-68
2023/12/22 03:30:37;;;;;;;;;;;;;;;19.71;45.23;98264.78;2098599;28;6403;-68
2023/12/22 03:31:39;;;;;;;;;;;;;;;19.72;45.26;98260.47;2098191;28;1970;-68
2023/12/22 03:32:41;;;;;;;;;;;;;;;19.71;45.20;98259.06;2099134;28;1883;-68
2023/12/22 03:33:42;;;;;;;;;;;;;;;19.71;45.35;98253.31;2100254;28;1550;-68
2023/12/22 03:34:44;;;;;;;;;;;;;;;19.71;45.18;98256.19;2099407;28;1955;-68
2023/12/22 03:35:45;;;;;;;;;;;;;;;19.71;45.27;98253.31;2097761;28;2153;-68
2023/12/22 03:36:48;;;;;;;;;;;;;;;19.71;45.22;98259.06;2097867;28;2171;-68
2023/12/22 03:37:50;;;;;;;;;;;;;;;19.72;45.22;98257.59;2098307;28;1784;-68
2023/12/22 03:38:52;;;;;;;;;;;;;;;19.72;45.31;98257.59;2098499;28;1962;-68
2023/12/22 03:39:53;;;;;;;;;;;;;;;19.72;45.27;98254.75;2099882;28;2205;-68
2023/12/22 03:40:55;;;;;;;;;;;;;;;19.72;45.28;98251.88;2097666;28;1578;-68
2023/12/22 03:41:56;;;;;;;;;;;;;;;19.68;45.27;98241.06;2099568;28;2042;-68
2023/12/22 03:42:58;;;;;;;;;;;;;;;19.71;45.26;98250.44;2099724;28;1590;-68
2023/12/22 03:43:59;;;;;;;;;;;;;;;19.72;45.40;98251.88;2099226;28;1990;-68
2023/12/22 03:45:00;;;;;;;;;;;;;;;19.71;45.22;98250.44;2102036;28;2010;-68
2023/12/22 03:46:02;;;;;;;;;;;;;;;19.71;45.22;98259.06;2099082;28;1994;-68
2023/12/22 03:47:04;;;;;;;;;;;;;;;19.70;45.30;98248.97;2099457;28;1890;-68
2023/12/22 03:48:05;;;;;;;;;;;;;;;19.70;45.39;98257.59;2100728;28;1970;-68
2023/12/22 03:49:07;;;;;;;;;;;;;;;19.71;45.33;98259.06;2097983;28;1947;-68
2023/12/22 03:50:09;;;;;;;;;;;;;;;19.72;45.41;98266.94;2100759;28;1589;-68
2023/12/22 03:51:14;;;;;;;;;;;;;;;19.73;45.30;98267.69;2099407;28;2073;-68
2023/12/22 03:52:16;;;;;;;;;;;;;;;19.72;45.18;98266.94;2100189;28;1593;-68
2023/12/22 03:53:17;;;;;;;;;;;;;;;19.72;45.29;98261.19;2098923;28;2059;-68
2023/12/22 03:54:18;;;;;;;;;;;;;;;19.72;45.31;98258.31;2101093;28;2002;-68
2023/12/22 03:55:20;;;;;;;;;;;;;;;19.74;45.31;98263.38;2100385;28;1943;-68
2023/12/22 03:56:21;;;;;;;;;;;;;;;19.75;45.34;98267.69;2097900;28;2038;-68
2023/12/22 03:57:23;;;;;;;;;;;;;;;19.74;45.35;98266.25;2098398;28;2216;-68
2023/12/22 03:58:26;;;;;;;;;;;;;;;19.75;45.25;98264.84;2100309;28;1524;-68
2023/12/22 03:59:27;;;;;;;;;;;;;;;19.76;45.38;98266.25;2101237;28;1958;-68
2023/12/22 04:00:29;;;;;;;;;;;;;;;19.76;45.61;98272.00;2097886;28;6254;-68
2023/12/22 04:01:30;;;;;;;;;;;;;;;19.77;45.46;98273.44;2102717;28;1831;-68
2023/12/22 04:02:32;;;;;;;;;;;;;;;19.77;45.48;98256.22;2101332;28;1630;-68
2023/12/22 04:03:33;;;;;;;;;;;;;;;19.77;45.49;98270.56;2099568;28;1621;-68
2023/12/22 04:04:38;;;;;;;;;;;;;;;19.78;45.48;98272.03;2098256;28;1982;-68
2023/12/22 04:05:39;;;;;;;;;;;;;;;19.78;45.37;98286.38;2098567;28;1806;-68
2023/12/22 04:06:41;;;;;;;;;;;;;;;19.78;45.44;98286.38;2098321;28;2261;-67
2023/12/22 04:07:42;;;;;;;;;;;;;;;19.78;45.39;98274.91;2098373;28;1712;-68
2023/12/22 04:08:44;;;;;;;;;;;;;;;19.78;45.32;98272.75;2098586;28;2017;-68
2023/12/22 04:09:45;;;;;;;;;;;;;;;19.77;45.42;98270.56;2099869;28;1546;-68
2023/12/22 04:10:47;;;;;;;;;;;;;;;19.78;45.37;98257.66;2100548;28;1979;-67
2023/12/22 04:11:48;;;;;;;;;;;;;;;19.77;45.64;98264.81;2099076;28;1660;-68
2023/12/22 04:12:49;;;;;;;;;;;;;;;19.77;45.57;98274.19;2101707;28;1590;-68
2023/12/22 04:13:51;;;;;;;;;;;;;;;19.77;45.57;98273.44;2096859;28;1935;-68
2023/12/22 04:14:53;;;;;;;;;;;;;;;19.78;45.47;98260.53;2099781;28;1998;-69
2023/12/22 04:15:55;;;;;;;;;;;;;;;19.77;45.50;98259.81;2098826;28;1966;-68
2023/12/22 04:16:57;;;;;;;;;;;;;;;19.78;45.67;98263.41;2098793;28;1574;-68
2023/12/22 04:17:58;;;;;;;;;;;;;;;19.78;45.59;98251.91;2098549;28;1849;-67
2023/12/22 04:19:00;;;;;;;;;;;;;;;19.77;45.58;98245.47;2100334;28;1972;-68
2023/12/22 04:20:01;;;;;;;;;;;;;;;19.78;45.53;98246.19;2097822;28;1534;-68
2023/12/22 04:21:03;;;;;;;;;;;;;;;19.78;45.46;98243.31;2097794;28;1898;-67
2023/12/22 04:22:04;;;;;;;;;;;;;;;19.78;45.50;98240.44;2100424;28;1514;-68
2023/12/22 04:23:06;;;;;;;;;;;;;;;19.79;45.60;98236.13;2099994;28;1578;-68
2023/12/22 04:24:07;;;;;;;;;;;;;;;19.80;45.55;98249.06;2096175;28;2096;-68
2023/12/22 04:25:09;;;;;;;;;;;;;;;19.79;45.65;98233.25;2102243;28;1926;-68
2023/12/22 04:26:10;;;;;;;;;;;;;;;19.81;45.72;98230.41;2098504;28;1942;-68
2023/12/22 04:27:11;;;;;;;;;;;;;;;19.81;45.53;98233.28;2100237;28;1994;-68
2023/12/22 04:28:13;;;;;;;;;;;;;;;19.80;45.59;98243.31;2101754;28;1926;-68
2023/12/22 04:29:15;;;;;;;;;;;;;;;19.81;45.60;98250.50;2097613;28;1962;-68
2023/12/22 04:30:16;;;;;;;;;;;;;;;19.81;45.72;98241.88;2097586;28;6146;-68
2023/12/22 04:31:18;;;;;;;;;;;;;;;19.82;45.54;98249.09;2099400;28;2045;-68
2023/12/22 04:32:19;;;;;;;;;;;;;;;19.82;45.71;98237.59;2099327;28;1596;-67
2023/12/22 04:33:20;;;;;;;;;;;;;;;19.83;45.57;98248.38;2101607;28;1859;-68
2023/12/22 04:34:22;;;;;;;;;;;;;;;19.83;45.79;98228.25;2100095;28;1606;-68
2023/12/22 04:35:24;;;;;;;;;;;;;;;19.84;45.63;98238.34;2098569;28;1989;-68
2023/12/22 04:36:25;;;;;;;;;;;;;;;19.85;45.50;98241.91;2100109;28;1866;-68
2023/12/22 04:37:26;;;;;;;;;;;;;;;19.85;45.58;98239.06;2100946;28;1551;-68
2023/12/22 04:38:28;;;;;;;;;;;;;;;19.86;45.64;98246.25;2102956;28;1574;-68
2023/12/22 04:39:29;;;;;;;;;;;;;;;19.86;45.78;98249.13;2096809;28;1978;-68
2023/12/22 04:40:31;;;;;;;;;;;;;;;19.86;45.65;98254.88;2097823;28;2039;-68
2023/12/22 04:41:32;;;;;;;;;;;;;;;19.86;45.55;98260.59;2101780;28;1831;-68
2023/12/22 04:42:33;;;;;;;;;;;;;;;19.86;45.66;98252.00;2102445;28;1506;-69
2023/12/22 04:43:35;;;;;;;;;;;;;;;19.86;45.59;98252.00;2097635;28;1851;-68
2023/12/22 04:44:36;;;;;;;;;;;;;;;19.85;45.68;98245.50;2100291;28;1867;-69
2023/12/22 04:45:38;;;;;;;;;;;;;;;19.86;45.68;98246.25;2100309;28;1787;-68
2023/12/22 04:46:39;;;;;;;;;;;;;;;19.87;45.63;98259.16;2096651;28;1903;-68
2023/12/22 04:47:41;;;;;;;;;;;;;;;19.86;45.55;98252.00;2098540;28;1926;-68
2023/12/22 04:48:42;;;;;;;;;;;;;;;19.86;45.76;98254.88;2098523;28;1657;-68
2023/12/22 04:49:44;;;;;;;;;;;;;;;19.85;45.69;98262.03;2096598;28;1867;-68
2023/12/22 04:50:45;;;;;;;;;;;;;;;19.85;45.76;98262.03;2097626;28;2031;-68
2023/12/22 04:51:47;;;;;;;;;;;;;;;19.85;45.81;98270.63;2098234;28;1910;-68
2023/12/22 04:52:48;;;;;;;;;;;;;;;19.84;45.70;98277.81;2097333;28;1902;-68
2023/12/22 04:53:49;;;;;;;;;;;;;;;19.85;45.69;98273.50;2099895;28;1878;-68
2023/12/22 04:54:51;;;;;;;;;;;;;;;19.85;45.69;98279.25;2098762;28;1666;-68
2023/12/22 04:55:52;;;;;;;;;;;;;;;19.85;45.71;98285.00;2100723;28;2055;-68
2023/12/22 04:56:54;;;;;;;;;;;;;;;19.85;45.73;98267.75;2099997;28;1986;-68
2023/12/22 04:57:55;;;;;;;;;;;;;;;19.85;45.66;98267.75;2099023;28;2003;-68
2023/12/22 04:58:57;;;;;;;;;;;;;;;19.84;45.86;98244.06;2098367;28;1961;-68
2023/12/22 04:59:58;;;;;;;;;;;;;;;19.85;45.76;98262.03;2097520;28;1958;-68
2023/12/22 05:01:00;;;;;;;;;;;;;;;19.84;45.73;98254.84;2100792;28;5982;-68
2023/12/22 05:02:01;;;;;;;;;;;;;;;19.84;45.87;98255.56;2098181;28;1565;-68
2023/12/22 05:03:03;;;;;;;;;;;;;;;19.85;45.90;98262.72;2097437;28;1907;-68
2023/12/22 05:04:05;;;;;;;;;;;;;;;19.85;45.77;98250.53;2101689;28;1957;-68
2023/12/22 05:05:11;;;;;;;;;;;;;;;19.86;45.72;98249.84;2097613;28;2020;-68
2023/12/22 05:06:13;;;;;;;;;;;;;;;19.85;45.66;98242.63;2100063;28;1851;-68
2023/12/22 05:07:14;;;;;;;;;;;;;;;19.86;45.73;98252.00;2102191;28;1526;-68
2023/12/22 05:08:16;;;;;;;;;;;;;;;19.87;45.77;98259.16;2097058;28;1970;-68
2023/12/22 05:09:17;;;;;;;;;;;;;;;19.87;45.86;98259.16;2096374;28;2327;-68
2023/12/22 05:10:19;;;;;;;;;;;;;;;19.87;45.73;98259.88;2099180;28;1549;-68
2023/12/22 05:11:20;;;;;;;;;;;;;;;19.87;45.66;98259.16;2099836;28;1917;-68
2023/12/22 05:12:21;;;;;;;;;;;;;;;19.88;45.78;98261.34;2100831;28;2078;-68
2023/12/22 05:13:23;;;;;;;;;;;;;;;19.88;45.88;98266.34;2098675;28;1718;-68
2023/12/22 05:14:24;;;;;;;;;;;;;;;19.89;45.86;98256.31;2101671;28;1724;-68
2023/12/22 05:15:26;;;;;;;;;;;;;;;19.89;45.79;98262.06;2098895;28;2106;-68
2023/12/22 05:16:30;;;;;;;;;;;;;;;19.89;45.79;98262.06;2098971;28;1680;-68
2023/12/22 05:17:32;;;;;;;;;;;;;;;19.89;45.62;98267.78;2099155;28;1870;-68
2023/12/22 05:18:34;;;;;;;;;;;;;;;19.90;45.72;98266.34;2102916;28;1629;-68
2023/12/22 05:19:35;;;;;;;;;;;;;;;19.90;45.72;98252.00;2098162;28;1852;-68
2023/12/22 05:20:37;;;;;;;;;;;;;;;19.90;45.67;98260.63;2100831;28;1688;-69
2023/12/22 05:21:38;;;;;;;;;;;;;;;19.90;45.77;98251.28;2098747;28;1531;-68
2023/12/22 05:22:40;;;;;;;;;;;;;;;19.91;45.67;98252.75;2099566;28;1878;-68
2023/12/22 05:23:41;;;;;;;;;;;;;;;19.90;45.73;98257.75;2102843;28;1541;-68
2023/12/22 05:24:43;;;;;;;;;;;;;;;19.90;45.66;98265.63;2102096;28;1911;-68
2023/12/22 05:25:44;;;;;;;;;;;;;;;19.89;45.80;98262.06;2099996;28;1997;-68